Hauptseite
METAR-TAF:

METAR-TAF

Flughäfen :

Flughafen Mendoza

Mendoza, Argentinien

Breite: 32-50S, Länge: 068-47W, Höhe: 705 m

Beobachtung

Neuester Wetterbericht von vor 36 Minuten, um 20:00 UTC
Windstille
Temperatur
Luftdruck 1019 hPa
Sichtweite 10 km oder mehr
Leicht bewölkt in der Höhe von 2000 ft

METAR: SAME 252000Z 00000KT 9999 FEW020 BKN02515/10 Q1019

Zeit: 17:36 (20:36 UTC)

Prognose

Neuester Wetterbericht von vor 3 Stunden und 36 Minuten, um 17:00 UTC
Gültige Prognose vom 25 um 18 UTC bis 26 um 18 UTC
Wind 5 kt aus Südost
Sichtweite 10 km oder mehr
Aufgelockert bewölkt in der Höhe von 1500 ft
Durchbrochene Bewölkung in der Höhe von 4000 ft

TAF: SAME 251700Z 2518/2618 14005KT 9999 SCT015 BKN040 TX17/2520Z TN10/2610Z

Wetterbeobachtungen und Prognosen von mehr als 4000 Flughäfen (METAR und TAF Bericht).

Die verfügbaren Stationen werden durch gelbe und rote Markierungen auf der Karte dargestellt.

Führen Sie die Maus auf sie, um den Namen der Station zu sehen.

Darauf klicken, um die Beobachtung von Wetterbeobachtungen und Prognosen zu sehen.

Um die Karte zu ändern : klicken Sie auf den grünen Tasten mit einem schwarzen Kreuz Zum Vergrößern, auf den grünen Button mit einem Gedankenstrich zu verkleinern, oder auf die grünen Pfeile für benachbarte Karten.


METAR-TAF: